INFORMACIÓN METAR y TAF
METAR FOR EICK
ADDS - METARS form results

(1207 UTC 18 January 2020)
Data provider http://aviationweather.gov/metar/data/
 
METAR text: EICK 181200Z 07007KT 9999 FEW018 05/03 Q1029 NOSIG
Conditions at: EICK (CORK ARPT/CORCAI, IE) observed 1200 UTC 18 January 2020
Temperature: 5.0°C (41°F)
Dewpoint: 3.0°C (37°F) [RH = 87%]
Pressure (altimeter): 30.38 inches Hg (1029.0 mb)
Winds: from the ENE (70 degrees) at 8 MPH (7 knots; 3.6 m/s)
Visibility: 6 or more miles (10+ km)
Ceiling: at least 12,000 feet AGL
Clouds: few clouds at 1800 feet AGL
Weather: no significant weather observed at this time

METAR text: EICK 181130Z 06008KT 9999 FEW018 04/02 Q1029 NOSIG
Conditions at: EICK (CORK ARPT/CORCAI, IE) observed 1130 UTC 18 January 2020
Temperature: 4.0°C (39°F)
Dewpoint: 2.0°C (36°F) [RH = 87%]
Pressure (altimeter): 30.38 inches Hg (1029.0 mb)
Winds: from the ENE (60 degrees) at 9 MPH (8 knots; 4.1 m/s)
Visibility: 6 or more miles (10+ km)
Ceiling: at least 12,000 feet AGL
Clouds: few clouds at 1800 feet AGL
Weather: no significant weather observed at this time

Forecast for: EICK (CORK ARPT/CORCAI, IE)
Text: TAF EICK 181100Z 1812/1912 07007KT 9999 FEW040
Forecast period: 1200 UTC 18 January 2020 to 1200 UTC 19 January 2020
Forecast type: FROM: standard forecast or significant change
Winds: from the ENE (70 degrees) at 8 MPH (7 knots; 3.6 m/s)
Visibility: 6 or more miles 10+ km)
Ceiling: at least 12,000 feet AGL
Clouds: few clouds at 4000 feet AGL
Weather: no significant weather forecast for this period

MAPA DE AEROPUERTO

INFORMACIÓN DE PISTA
Pista 07 Longitud 4298 ft Ancho 148 ft
Elevación 471 ft Umbral desplazado 0 ft Rumbo de pista 63
Pista 25 Longitud 4298 ft Ancho 148 ft
Elevación 502 ft Umbral desplazado 0 ft Rumbo de pista 243
Pista 17 Longitud 6998 ft Ancho 148 ft
Elevación 477 ft Umbral desplazado 0 ft Rumbo de pista 160
Pista 35 Longitud 6998 ft Ancho 148 ft
Elevación 460 ft Umbral desplazado 0 ft Rumbo de pista 340

FRECUANCIAS DEL AEROPUERTO
Tipo APP Nombre APP Frecuencia 119.9 MHZ
Tipo ATIS Nombre ATIS Frecuencia 120.925 MHZ
Tipo GND Nombre GND Frecuencia 121.85 MHZ
Tipo TWR Nombre TWR Frecuencia 119.3 MHZ

RADIO AYUDAS DEL AEROPUERTO
Tipo VOR-DME Nombre Cork Frecuencia 114600 KHZ